sensor_id;sensor_type;location;lat;lon;timestamp;temperature;humidity
28530;DHT22;15737;49.760;6.632;2022-07-03T00:01:53;15.80;94.00
28530;DHT22;15737;49.760;6.632;2022-07-03T00:04:19;15.80;94.20
28530;DHT22;15737;49.760;6.632;2022-07-03T00:06:46;15.70;94.40
28530;DHT22;15737;49.760;6.632;2022-07-03T00:09:12;15.70;94.80
28530;DHT22;15737;49.760;6.632;2022-07-03T00:11:37;15.70;95.40
28530;DHT22;15737;49.760;6.632;2022-07-03T00:14:04;15.60;95.80
28530;DHT22;15737;49.760;6.632;2022-07-03T00:16:30;15.50;96.40
28530;DHT22;15737;49.760;6.632;2022-07-03T00:18:55;15.50;96.60
28530;DHT22;15737;49.760;6.632;2022-07-03T00:21:27;15.50;96.90
28530;DHT22;15737;49.760;6.632;2022-07-03T00:24:04;15.50;97.00
28530;DHT22;15737;49.760;6.632;2022-07-03T00:26:34;15.40;97.10
28530;DHT22;15737;49.760;6.632;2022-07-03T00:29:02;15.40;97.40
28530;DHT22;15737;49.760;6.632;2022-07-03T00:31:29;15.30;98.00
28530;DHT22;15737;49.760;6.632;2022-07-03T00:33:57;15.20;98.50
28530;DHT22;15737;49.760;6.632;2022-07-03T00:36:26;15.20;99.10
28530;DHT22;15737;49.760;6.632;2022-07-03T00:38:52;15.10;99.50
28530;DHT22;15737;49.760;6.632;2022-07-03T00:41:29;15.00;99.90
28530;DHT22;15737;49.760;6.632;2022-07-03T00:43:55;15.00;99.90
28530;DHT22;15737;49.760;6.632;2022-07-03T00:46:23;15.00;99.90
28530;DHT22;15737;49.760;6.632;2022-07-03T00:48:50;15.00;99.90
28530;DHT22;15737;49.760;6.632;2022-07-03T00:51:25;15.10;99.90
28530;DHT22;15737;49.760;6.632;2022-07-03T00:53:53;15.00;99.90
28530;DHT22;15737;49.760;6.632;2022-07-03T00:56:28;15.00;99.90
28530;DHT22;15737;49.760;6.632;2022-07-03T00:58:56;14.90;99.90
28530;DHT22;15737;49.760;6.632;2022-07-03T01:01:26;14.80;99.90
28530;DHT22;15737;49.760;6.632;2022-07-03T01:06:53;14.80;99.90
28530;DHT22;15737;49.760;6.632;2022-07-03T01:09:41;14.80;99.90
28530;DHT22;15737;49.760;6.632;2022-07-03T01:15:10;14.70;99.90
28530;DHT22;15737;49.760;6.632;2022-07-03T01:17:42;14.70;99.90
28530;DHT22;15737;49.760;6.632;2022-07-03T01:20:12;14.70;99.90
28530;DHT22;15737;49.760;6.632;2022-07-03T01:22:44;14.60;99.90
28530;DHT22;15737;49.760;6.632;2022-07-03T01:28:12;14.40;99.90
28530;DHT22;15737;49.760;6.632;2022-07-03T01:30:39;14.40;99.90
28530;DHT22;15737;49.760;6.632;2022-07-03T01:33:09;14.40;99.90
28530;DHT22;15737;49.760;6.632;2022-07-03T01:35:49;14.30;99.90
28530;DHT22;15737;49.760;6.632;2022-07-03T01:38:21;14.30;99.90
28530;DHT22;15737;49.760;6.632;2022-07-03T01:40:49;14.30;99.90
28530;DHT22;15737;49.760;6.632;2022-07-03T01:43:15;14.30;99.90
28530;DHT22;15737;49.760;6.632;2022-07-03T01:45:47;14.20;99.90
28530;DHT22;15737;49.760;6.632;2022-07-03T01:48:13;14.20;99.90
28530;DHT22;15737;49.760;6.632;2022-07-03T01:50:41;14.20;99.90
28530;DHT22;15737;49.760;6.632;2022-07-03T01:53:08;14.20;99.90
28530;DHT22;15737;49.760;6.632;2022-07-03T01:55:37;14.10;99.90
28530;DHT22;15737;49.760;6.632;2022-07-03T01:58:03;14.10;99.90
28530;DHT22;15737;49.760;6.632;2022-07-03T02:00:29;14.00;99.90
28530;DHT22;15737;49.760;6.632;2022-07-03T02:02:56;14.00;99.90
28530;DHT22;15737;49.760;6.632;2022-07-03T02:11:21;13.90;99.90
28530;DHT22;15737;49.760;6.632;2022-07-03T02:13:52;13.80;99.90
28530;DHT22;15737;49.760;6.632;2022-07-03T02:16:23;13.80;99.90
28530;DHT22;15737;49.760;6.632;2022-07-03T02:18:57;13.70;99.90
28530;DHT22;15737;49.760;6.632;2022-07-03T02:21:28;13.70;99.90
28530;DHT22;15737;49.760;6.632;2022-07-03T02:24:09;13.70;99.90
28530;DHT22;15737;49.760;6.632;2022-07-03T02:26:41;13.70;99.90
28530;DHT22;15737;49.760;6.632;2022-07-03T02:29:12;13.70;99.90
28530;DHT22;15737;49.760;6.632;2022-07-03T02:31:45;13.70;99.90
28530;DHT22;15737;49.760;6.632;2022-07-03T02:34:17;13.70;99.90
28530;DHT22;15737;49.760;6.632;2022-07-03T02:36:47;13.60;99.90
28530;DHT22;15737;49.760;6.632;2022-07-03T02:39:27;13.60;99.90
28530;DHT22;15737;49.760;6.632;2022-07-03T02:41:59;13.60;99.90
28530;DHT22;15737;49.760;6.632;2022-07-03T02:45:03;13.50;99.90
28530;DHT22;15737;49.760;6.632;2022-07-03T02:47:35;13.50;99.90
28530;DHT22;15737;49.760;6.632;2022-07-03T02:50:11;13.50;99.90
28530;DHT22;15737;49.760;6.632;2022-07-03T02:57:38;13.40;99.90
28530;DHT22;15737;49.760;6.632;2022-07-03T03:00:09;13.30;99.90
28530;DHT22;15737;49.760;6.632;2022-07-03T03:02:54;13.30;99.90
28530;DHT22;15737;49.760;6.632;2022-07-03T03:05:47;13.30;99.90
28530;DHT22;15737;49.760;6.632;2022-07-03T03:08:29;13.20;99.90
28530;DHT22;15737;49.760;6.632;2022-07-03T03:11:01;13.20;99.90
28530;DHT22;15737;49.760;6.632;2022-07-03T03:13:31;13.10;99.90
28530;DHT22;15737;49.760;6.632;2022-07-03T03:16:10;13.10;99.90
28530;DHT22;15737;49.760;6.632;2022-07-03T03:18:40;13.10;99.90
28530;DHT22;15737;49.760;6.632;2022-07-03T03:21:11;13.10;99.90
28530;DHT22;15737;49.760;6.632;2022-07-03T03:26:04;13.10;99.90
28530;DHT22;15737;49.760;6.632;2022-07-03T03:28:30;13.20;99.90
28530;DHT22;15737;49.760;6.632;2022-07-03T03:30:56;13.20;99.90
28530;DHT22;15737;49.760;6.632;2022-07-03T03:33:22;13.10;99.90
28530;DHT22;15737;49.760;6.632;2022-07-03T03:35:48;13.10;99.90
28530;DHT22;15737;49.760;6.632;2022-07-03T03:38:14;13.10;99.90
28530;DHT22;15737;49.760;6.632;2022-07-03T03:40:40;13.00;99.90
28530;DHT22;15737;49.760;6.632;2022-07-03T03:43:05;13.00;99.90
28530;DHT22;15737;49.760;6.632;2022-07-03T03:45:31;13.00;99.90
28530;DHT22;15737;49.760;6.632;2022-07-03T03:47:57;13.00;99.90
28530;DHT22;15737;49.760;6.632;2022-07-03T03:50:23;13.00;99.90
28530;DHT22;15737;49.760;6.632;2022-07-03T03:52:48;13.00;99.90
28530;DHT22;15737;49.760;6.632;2022-07-03T03:55:14;13.00;99.90
28530;DHT22;15737;49.760;6.632;2022-07-03T04:00:09;13.10;99.90
28530;DHT22;15737;49.760;6.632;2022-07-03T04:02:34;13.30;99.90
28530;DHT22;15737;49.760;6.632;2022-07-03T04:05:00;13.40;99.90
28530;DHT22;15737;49.760;6.632;2022-07-03T04:07:26;13.70;99.90
28530;DHT22;15737;49.760;6.632;2022-07-03T04:09:51;13.90;99.90
28530;DHT22;15737;49.760;6.632;2022-07-03T04:12:17;14.10;99.90
28530;DHT22;15737;49.760;6.632;2022-07-03T04:14:42;14.40;99.90
28530;DHT22;15737;49.760;6.632;2022-07-03T04:17:08;15.00;99.90
28530;DHT22;15737;49.760;6.632;2022-07-03T04:19:34;15.70;99.90
28530;DHT22;15737;49.760;6.632;2022-07-03T04:21:59;16.00;99.90
28530;DHT22;15737;49.760;6.632;2022-07-03T04:24:25;15.80;99.90
28530;DHT22;15737;49.760;6.632;2022-07-03T04:26:50;15.70;99.90
28530;DHT22;15737;49.760;6.632;2022-07-03T04:29:16;15.80;99.90
28530;DHT22;15737;49.760;6.632;2022-07-03T04:31:42;16.10;99.90
28530;DHT22;15737;49.760;6.632;2022-07-03T04:34:07;16.40;99.90
28530;DHT22;15737;49.760;6.632;2022-07-03T04:36:33;16.70;99.90
28530;DHT22;15737;49.760;6.632;2022-07-03T04:38:59;17.10;99.90
28530;DHT22;15737;49.760;6.632;2022-07-03T04:41:24;17.70;99.90
28530;DHT22;15737;49.760;6.632;2022-07-03T04:43:50;18.20;99.90
28530;DHT22;15737;49.760;6.632;2022-07-03T04:46:15;18.70;99.90
28530;DHT22;15737;49.760;6.632;2022-07-03T04:48:41;19.30;99.90
28530;DHT22;15737;49.760;6.632;2022-07-03T04:51:07;19.80;99.90
28530;DHT22;15737;49.760;6.632;2022-07-03T04:53:32;20.40;99.90
28530;DHT22;15737;49.760;6.632;2022-07-03T04:55:58;21.00;99.90
28530;DHT22;15737;49.760;6.632;2022-07-03T04:58:24;21.40;99.60
28530;DHT22;15737;49.760;6.632;2022-07-03T05:03:18;22.50;96.30
28530;DHT22;15737;49.760;6.632;2022-07-03T05:05:44;23.00;94.40
28530;DHT22;15737;49.760;6.632;2022-07-03T05:08:09;23.30;92.90
28530;DHT22;15737;49.760;6.632;2022-07-03T05:10:35;23.60;91.60
28530;DHT22;15737;49.760;6.632;2022-07-03T05:13:00;23.90;90.20
28530;DHT22;15737;49.760;6.632;2022-07-03T05:15:26;24.10;87.10
28530;DHT22;15737;49.760;6.632;2022-07-03T05:17:51;24.30;84.30
28530;DHT22;15737;49.760;6.632;2022-07-03T05:20:18;24.60;81.90
28530;DHT22;15737;49.760;6.632;2022-07-03T05:22:53;24.60;80.50
28530;DHT22;15737;49.760;6.632;2022-07-03T05:25:20;24.70;79.00
28530;DHT22;15737;49.760;6.632;2022-07-03T05:27:46;25.30;77.00
28530;DHT22;15737;49.760;6.632;2022-07-03T05:30:12;26.00;73.90
28530;DHT22;15737;49.760;6.632;2022-07-03T05:32:38;26.50;71.00
28530;DHT22;15737;49.760;6.632;2022-07-03T05:35:05;26.60;70.10
28530;DHT22;15737;49.760;6.632;2022-07-03T05:37:31;26.50;69.10
28530;DHT22;15737;49.760;6.632;2022-07-03T05:39:56;26.90;66.80
28530;DHT22;15737;49.760;6.632;2022-07-03T05:42:22;27.20;65.20
28530;DHT22;15737;49.760;6.632;2022-07-03T05:44:47;27.00;65.00
28530;DHT22;15737;49.760;6.632;2022-07-03T05:47:13;27.00;64.70
28530;DHT22;15737;49.760;6.632;2022-07-03T05:49:38;27.30;63.30
28530;DHT22;15737;49.760;6.632;2022-07-03T05:52:04;28.10;60.40
28530;DHT22;15737;49.760;6.632;2022-07-03T05:54:30;28.70;59.00
28530;DHT22;15737;49.760;6.632;2022-07-03T05:56:55;29.60;57.50
28530;DHT22;15737;49.760;6.632;2022-07-03T05:59:21;29.70;56.00
28530;DHT22;15737;49.760;6.632;2022-07-03T06:01:46;29.40;56.10
28530;DHT22;15737;49.760;6.632;2022-07-03T06:04:12;29.70;55.10
28530;DHT22;15737;49.760;6.632;2022-07-03T06:06:37;30.20;53.80
28530;DHT22;15737;49.760;6.632;2022-07-03T06:09:04;30.70;52.80
28530;DHT22;15737;49.760;6.632;2022-07-03T06:11:34;31.50;51.20
28530;DHT22;15737;49.760;6.632;2022-07-03T06:14:00;32.80;48.50
28530;DHT22;15737;49.760;6.632;2022-07-03T06:16:25;34.00;46.20
28530;DHT22;15737;49.760;6.632;2022-07-03T06:18:51;34.40;45.40
28530;DHT22;15737;49.760;6.632;2022-07-03T06:21:16;34.20;45.20
28530;DHT22;15737;49.760;6.632;2022-07-03T06:23:42;33.40;46.10
28530;DHT22;15737;49.760;6.632;2022-07-03T06:26:08;33.10;46.50
28530;DHT22;15737;49.760;6.632;2022-07-03T06:28:33;33.30;46.10
28530;DHT22;15737;49.760;6.632;2022-07-03T06:30:59;33.90;45.00
28530;DHT22;15737;49.760;6.632;2022-07-03T06:33:24;34.30;44.40
28530;DHT22;15737;49.760;6.632;2022-07-03T06:35:50;34.80;43.40
28530;DHT22;15737;49.760;6.632;2022-07-03T06:38:15;35.00;43.10
28530;DHT22;15737;49.760;6.632;2022-07-03T06:40:41;35.50;42.40
28530;DHT22;15737;49.760;6.632;2022-07-03T06:43:06;36.10;41.10
28530;DHT22;15737;49.760;6.632;2022-07-03T06:45:32;36.30;40.70
28530;DHT22;15737;49.760;6.632;2022-07-03T06:47:57;37.20;39.80
28530;DHT22;15737;49.760;6.632;2022-07-03T06:50:25;38.00;38.80
28530;DHT22;15737;49.760;6.632;2022-07-03T06:52:51;38.10;38.40
28530;DHT22;15737;49.760;6.632;2022-07-03T06:55:17;38.00;38.30
28530;DHT22;15737;49.760;6.632;2022-07-03T06:57:42;37.40;38.70
28530;DHT22;15737;49.760;6.632;2022-07-03T07:00:08;38.20;37.70
28530;DHT22;15737;49.760;6.632;2022-07-03T07:02:34;39.40;36.10
28530;DHT22;15737;49.760;6.632;2022-07-03T07:04:59;39.70;35.90
28530;DHT22;15737;49.760;6.632;2022-07-03T07:07:25;40.40;35.10
28530;DHT22;15737;49.760;6.632;2022-07-03T07:09:50;40.70;34.50
28530;DHT22;15737;49.760;6.632;2022-07-03T07:12:16;40.80;34.10
28530;DHT22;15737;49.760;6.632;2022-07-03T07:14:42;41.00;34.00
28530;DHT22;15737;49.760;6.632;2022-07-03T07:17:08;41.30;33.40
28530;DHT22;15737;49.760;6.632;2022-07-03T07:19:34;40.40;34.10
28530;DHT22;15737;49.760;6.632;2022-07-03T07:21:59;39.70;34.50
28530;DHT22;15737;49.760;6.632;2022-07-03T07:24:27;39.30;34.60
28530;DHT22;15737;49.760;6.632;2022-07-03T07:26:52;39.20;34.70
28530;DHT22;15737;49.760;6.632;2022-07-03T07:29:18;39.20;34.60
28530;DHT22;15737;49.760;6.632;2022-07-03T07:31:43;39.10;34.60
28530;DHT22;15737;49.760;6.632;2022-07-03T07:34:09;39.10;34.40
28530;DHT22;15737;49.760;6.632;2022-07-03T07:36:36;38.60;35.10
28530;DHT22;15737;49.760;6.632;2022-07-03T07:39:01;38.30;35.30
28530;DHT22;15737;49.760;6.632;2022-07-03T07:41:27;38.40;35.30
28530;DHT22;15737;49.760;6.632;2022-07-03T07:43:53;38.90;34.60
28530;DHT22;15737;49.760;6.632;2022-07-03T07:46:18;39.70;34.00
28530;DHT22;15737;49.760;6.632;2022-07-03T07:48:44;40.40;33.10
28530;DHT22;15737;49.760;6.632;2022-07-03T07:51:10;40.50;33.00
28530;DHT22;15737;49.760;6.632;2022-07-03T07:53:36;40.80;32.90
28530;DHT22;15737;49.760;6.632;2022-07-03T07:56:02;41.00;32.60
28530;DHT22;15737;49.760;6.632;2022-07-03T07:58:27;41.80;31.80
28530;DHT22;15737;49.760;6.632;2022-07-03T08:00:53;41.40;32.00
28530;DHT22;15737;49.760;6.632;2022-07-03T08:03:37;40.50;32.50
28530;DHT22;15737;49.760;6.632;2022-07-03T08:06:21;39.70;33.10
28530;DHT22;15737;49.760;6.632;2022-07-03T08:08:46;39.20;33.60
28530;DHT22;15737;49.760;6.632;2022-07-03T08:11:12;39.90;33.10
28530;DHT22;15737;49.760;6.632;2022-07-03T08:13:37;40.10;32.90
28530;DHT22;15737;49.760;6.632;2022-07-03T08:16:03;39.70;33.10
28530;DHT22;15737;49.760;6.632;2022-07-03T08:18:29;39.50;33.40
28530;DHT22;15737;49.760;6.632;2022-07-03T08:20:54;39.60;33.10
28530;DHT22;15737;49.760;6.632;2022-07-03T08:23:20;39.80;32.80
28530;DHT22;15737;49.760;6.632;2022-07-03T08:25:45;39.70;33.10
28530;DHT22;15737;49.760;6.632;2022-07-03T08:28:11;39.60;33.10
28530;DHT22;15737;49.760;6.632;2022-07-03T08:30:37;39.20;33.20
28530;DHT22;15737;49.760;6.632;2022-07-03T08:33:02;39.30;33.40
28530;DHT22;15737;49.760;6.632;2022-07-03T08:35:28;39.30;33.30
28530;DHT22;15737;49.760;6.632;2022-07-03T08:37:54;39.30;33.00
28530;DHT22;15737;49.760;6.632;2022-07-03T08:40:20;39.10;33.20
28530;DHT22;15737;49.760;6.632;2022-07-03T08:42:49;40.20;32.00
28530;DHT22;15737;49.760;6.632;2022-07-03T08:45:17;40.20;31.90
28530;DHT22;15737;49.760;6.632;2022-07-03T08:47:44;39.90;31.80
28530;DHT22;15737;49.760;6.632;2022-07-03T08:50:11;39.80;31.30
28530;DHT22;15737;49.760;6.632;2022-07-03T08:52:38;38.80;31.80
28530;DHT22;15737;49.760;6.632;2022-07-03T08:55:04;38.10;31.60
28530;DHT22;15737;49.760;6.632;2022-07-03T08:57:33;37.60;31.60
28530;DHT22;15737;49.760;6.632;2022-07-03T09:00:03;37.80;31.70
28530;DHT22;15737;49.760;6.632;2022-07-03T09:02:31;38.10;31.10
28530;DHT22;15737;49.760;6.632;2022-07-03T09:04:58;38.00;31.30
28530;DHT22;15737;49.760;6.632;2022-07-03T09:07:26;38.80;30.70
28530;DHT22;15737;49.760;6.632;2022-07-03T09:09:55;40.60;29.40
28530;DHT22;15737;49.760;6.632;2022-07-03T09:12:21;41.50;28.90
28530;DHT22;15737;49.760;6.632;2022-07-03T09:14:46;40.80;29.20
28530;DHT22;15737;49.760;6.632;2022-07-03T09:17:12;40.30;29.40
28530;DHT22;15737;49.760;6.632;2022-07-03T09:19:46;40.60;29.20
28530;DHT22;15737;49.760;6.632;2022-07-03T09:22:20;40.60;29.70
28530;DHT22;15737;49.760;6.632;2022-07-03T09:24:48;40.50;29.10
28530;DHT22;15737;49.760;6.632;2022-07-03T09:27:17;39.30;29.30
28530;DHT22;15737;49.760;6.632;2022-07-03T09:29:59;37.70;29.90
28530;DHT22;15737;49.760;6.632;2022-07-03T09:32:26;37.70;30.10
28530;DHT22;15737;49.760;6.632;2022-07-03T09:35:18;38.90;29.60
28530;DHT22;15737;49.760;6.632;2022-07-03T09:38:02;39.40;29.10
28530;DHT22;15737;49.760;6.632;2022-07-03T09:40:49;39.80;28.00
28530;DHT22;15737;49.760;6.632;2022-07-03T09:43:22;39.30;28.10
28530;DHT22;15737;49.760;6.632;2022-07-03T09:45:54;39.00;28.30
28530;DHT22;15737;49.760;6.632;2022-07-03T09:48:30;38.00;28.50
28530;DHT22;15737;49.760;6.632;2022-07-03T09:51:22;37.50;28.80
28530;DHT22;15737;49.760;6.632;2022-07-03T09:54:03;36.10;29.70
28530;DHT22;15737;49.760;6.632;2022-07-03T09:56:37;36.30;29.80
28530;DHT22;15737;49.760;6.632;2022-07-03T09:59:08;37.30;29.20
28530;DHT22;15737;49.760;6.632;2022-07-03T10:01:41;36.60;29.90
28530;DHT22;15737;49.760;6.632;2022-07-03T10:04:20;35.30;31.20
28530;DHT22;15737;49.760;6.632;2022-07-03T10:09:19;33.80;33.30
28530;DHT22;15737;49.760;6.632;2022-07-03T10:11:45;34.70;32.60
28530;DHT22;15737;49.760;6.632;2022-07-03T10:14:16;36.60;31.10
28530;DHT22;15737;49.760;6.632;2022-07-03T10:16:42;37.40;30.20
28530;DHT22;15737;49.760;6.632;2022-07-03T10:19:17;37.60;29.80
28530;DHT22;15737;49.760;6.632;2022-07-03T10:21:47;35.70;31.60
28530;DHT22;15737;49.760;6.632;2022-07-03T10:24:16;34.60;32.60
28530;DHT22;15737;49.760;6.632;2022-07-03T10:26:42;34.20;33.20
28530;DHT22;15737;49.760;6.632;2022-07-03T10:29:09;34.30;33.40
28530;DHT22;15737;49.760;6.632;2022-07-03T10:31:37;36.10;32.00
28530;DHT22;15737;49.760;6.632;2022-07-03T10:34:05;37.80;30.60
28530;DHT22;15737;49.760;6.632;2022-07-03T10:36:32;38.00;29.50
28530;DHT22;15737;49.760;6.632;2022-07-03T10:39:02;37.00;30.30
28530;DHT22;15737;49.760;6.632;2022-07-03T10:41:43;36.00;31.60
28530;DHT22;15737;49.760;6.632;2022-07-03T10:44:28;34.70;33.40
28530;DHT22;15737;49.760;6.632;2022-07-03T10:47:37;33.70;34.80
28530;DHT22;15737;49.760;6.632;2022-07-03T10:50:17;33.20;35.50
28530;DHT22;15737;49.760;6.632;2022-07-03T10:52:43;33.70;35.00
28530;DHT22;15737;49.760;6.632;2022-07-03T10:55:11;35.30;33.30
28530;DHT22;15737;49.760;6.632;2022-07-03T10:57:38;35.80;32.40
28530;DHT22;15737;49.760;6.632;2022-07-03T11:00:23;35.70;32.20
28530;DHT22;15737;49.760;6.632;2022-07-03T11:02:50;35.60;32.40
28530;DHT22;15737;49.760;6.632;2022-07-03T11:05:21;35.50;32.30
28530;DHT22;15737;49.760;6.632;2022-07-03T11:13:01;31.50;36.60
28530;DHT22;15737;49.760;6.632;2022-07-03T11:18:19;29.70;39.70
28530;DHT22;15737;49.760;6.632;2022-07-03T11:23:17;31.60;35.90
28530;DHT22;15737;49.760;6.632;2022-07-03T11:25:48;31.60;36.80
28530;DHT22;15737;49.760;6.632;2022-07-03T11:31:24;32.70;35.30
28530;DHT22;15737;49.760;6.632;2022-07-03T11:36:23;32.60;35.20
28530;DHT22;15737;49.760;6.632;2022-07-03T11:41:46;32.70;35.70
28530;DHT22;15737;49.760;6.632;2022-07-03T11:44:17;33.20;34.50
28530;DHT22;15737;49.760;6.632;2022-07-03T11:46:47;33.80;34.30
28530;DHT22;15737;49.760;6.632;2022-07-03T11:49:15;34.20;33.30
28530;DHT22;15737;49.760;6.632;2022-07-03T11:51:42;34.40;33.20
28530;DHT22;15737;49.760;6.632;2022-07-03T11:54:08;34.40;33.00
28530;DHT22;15737;49.760;6.632;2022-07-03T11:56:35;34.00;33.10
28530;DHT22;15737;49.760;6.632;2022-07-03T11:59:03;33.60;33.60
28530;DHT22;15737;49.760;6.632;2022-07-03T12:01:34;34.00;33.30
28530;DHT22;15737;49.760;6.632;2022-07-03T12:04:14;33.90;33.80
28530;DHT22;15737;49.760;6.632;2022-07-03T12:06:59;34.30;32.50
28530;DHT22;15737;49.760;6.632;2022-07-03T12:17:04;34.10;33.20
28530;DHT22;15737;49.760;6.632;2022-07-03T12:19:30;34.60;33.20
28530;DHT22;15737;49.760;6.632;2022-07-03T12:21:56;34.70;33.10
28530;DHT22;15737;49.760;6.632;2022-07-03T12:24:22;34.30;32.60
28530;DHT22;15737;49.760;6.632;2022-07-03T12:26:48;34.50;32.80
28530;DHT22;15737;49.760;6.632;2022-07-03T12:29:15;34.70;32.50
28530;DHT22;15737;49.760;6.632;2022-07-03T12:31:42;34.40;31.90
28530;DHT22;15737;49.760;6.632;2022-07-03T12:34:20;33.60;32.80
28530;DHT22;15737;49.760;6.632;2022-07-03T12:36:58;34.10;33.20
28530;DHT22;15737;49.760;6.632;2022-07-03T12:39:41;34.60;32.10
28530;DHT22;15737;49.760;6.632;2022-07-03T12:42:21;34.30;32.30
28530;DHT22;15737;49.760;6.632;2022-07-03T12:45:00;33.80;32.50
28530;DHT22;15737;49.760;6.632;2022-07-03T12:47:27;34.00;32.60
28530;DHT22;15737;49.760;6.632;2022-07-03T12:50:00;34.40;32.30
28530;DHT22;15737;49.760;6.632;2022-07-03T12:52:28;34.80;32.30
28530;DHT22;15737;49.760;6.632;2022-07-03T12:54:54;34.90;31.50
28530;DHT22;15737;49.760;6.632;2022-07-03T12:57:22;34.30;32.20
28530;DHT22;15737;49.760;6.632;2022-07-03T13:02:39;33.50;33.40
28530;DHT22;15737;49.760;6.632;2022-07-03T13:05:24;33.70;33.50
28530;DHT22;15737;49.760;6.632;2022-07-03T13:07:54;34.60;33.10
28530;DHT22;15737;49.760;6.632;2022-07-03T13:10:22;34.50;32.20
28530;DHT22;15737;49.760;6.632;2022-07-03T13:12:57;32.80;33.50
28530;DHT22;15737;49.760;6.632;2022-07-03T13:15:27;32.10;34.70
28530;DHT22;15737;49.760;6.632;2022-07-03T13:20:20;32.90;34.10
28530;DHT22;15737;49.760;6.632;2022-07-03T13:22:54;33.70;33.70
28530;DHT22;15737;49.760;6.632;2022-07-03T13:25:20;34.50;33.20
28530;DHT22;15737;49.760;6.632;2022-07-03T13:27:46;34.60;33.10
28530;DHT22;15737;49.760;6.632;2022-07-03T13:30:16;33.70;33.60
28530;DHT22;15737;49.760;6.632;2022-07-03T13:32:43;32.60;34.70
28530;DHT22;15737;49.760;6.632;2022-07-03T13:35:09;31.70;35.80
28530;DHT22;15737;49.760;6.632;2022-07-03T13:37:35;31.40;36.40
28530;DHT22;15737;49.760;6.632;2022-07-03T13:40:01;32.10;35.80
28530;DHT22;15737;49.760;6.632;2022-07-03T13:42:28;32.90;35.10
28530;DHT22;15737;49.760;6.632;2022-07-03T13:44:53;33.30;34.40
28530;DHT22;15737;49.760;6.632;2022-07-03T13:47:19;32.20;35.30
28530;DHT22;15737;49.760;6.632;2022-07-03T13:49:44;31.20;36.60
28530;DHT22;15737;49.760;6.632;2022-07-03T13:52:10;30.40;37.50
28530;DHT22;15737;49.760;6.632;2022-07-03T13:54:35;30.40;37.90
28530;DHT22;15737;49.760;6.632;2022-07-03T13:57:02;30.50;38.10
28530;DHT22;15737;49.760;6.632;2022-07-03T13:59:28;31.00;37.50
28530;DHT22;15737;49.760;6.632;2022-07-03T14:01:56;31.70;36.80
28530;DHT22;15737;49.760;6.632;2022-07-03T14:04:22;32.10;36.30
28530;DHT22;15737;49.760;6.632;2022-07-03T14:06:48;32.30;36.60
28530;DHT22;15737;49.760;6.632;2022-07-03T14:09:13;32.30;36.10
28530;DHT22;15737;49.760;6.632;2022-07-03T14:11:39;32.40;36.40
28530;DHT22;15737;49.760;6.632;2022-07-03T14:14:04;32.10;36.90
28530;DHT22;15737;49.760;6.632;2022-07-03T14:16:31;31.70;37.70
28530;DHT22;15737;49.760;6.632;2022-07-03T14:18:57;31.50;38.20
28530;DHT22;15737;49.760;6.632;2022-07-03T14:21:22;31.10;38.60
28530;DHT22;15737;49.760;6.632;2022-07-03T14:23:48;31.20;38.50
28530;DHT22;15737;49.760;6.632;2022-07-03T14:26:13;31.30;38.70
28530;DHT22;15737;49.760;6.632;2022-07-03T14:28:39;31.60;38.70
28530;DHT22;15737;49.760;6.632;2022-07-03T14:31:23;32.20;38.20
28530;DHT22;15737;49.760;6.632;2022-07-03T14:34:07;32.50;37.40
28530;DHT22;15737;49.760;6.632;2022-07-03T14:36:32;31.90;37.00
28530;DHT22;15737;49.760;6.632;2022-07-03T14:38:58;31.30;37.70
28530;DHT22;15737;49.760;6.632;2022-07-03T14:41:23;31.00;38.60
28530;DHT22;15737;49.760;6.632;2022-07-03T14:43:49;30.40;39.10
28530;DHT22;15737;49.760;6.632;2022-07-03T14:46:14;30.10;39.90
28530;DHT22;15737;49.760;6.632;2022-07-03T14:48:40;30.10;40.30
28530;DHT22;15737;49.760;6.632;2022-07-03T14:51:05;30.50;40.30
28530;DHT22;15737;49.760;6.632;2022-07-03T14:53:31;30.50;40.20
28530;DHT22;15737;49.760;6.632;2022-07-03T14:55:57;30.60;40.50
28530;DHT22;15737;49.760;6.632;2022-07-03T14:58:26;30.80;40.10
28530;DHT22;15737;49.760;6.632;2022-07-03T15:00:54;30.90;40.20
28530;DHT22;15737;49.760;6.632;2022-07-03T15:03:31;30.90;40.10
28530;DHT22;15737;49.760;6.632;2022-07-03T15:06:02;30.30;40.70
28530;DHT22;15737;49.760;6.632;2022-07-03T15:08:42;30.00;41.40
28530;DHT22;15737;49.760;6.632;2022-07-03T15:11:14;29.80;41.30
28530;DHT22;15737;49.760;6.632;2022-07-03T15:14:03;30.40;41.30
28530;DHT22;15737;49.760;6.632;2022-07-03T15:16:31;30.60;40.50
28530;DHT22;15737;49.760;6.632;2022-07-03T15:19:00;30.70;40.60
28530;DHT22;15737;49.760;6.632;2022-07-03T15:21:29;30.50;40.70
28530;DHT22;15737;49.760;6.632;2022-07-03T15:23:57;30.50;40.80
28530;DHT22;15737;49.760;6.632;2022-07-03T15:26:23;30.00;40.90
28530;DHT22;15737;49.760;6.632;2022-07-03T15:28:49;29.50;41.70
28530;DHT22;15737;49.760;6.632;2022-07-03T15:31:15;29.60;42.20
28530;DHT22;15737;49.760;6.632;2022-07-03T15:33:41;29.60;42.20
28530;DHT22;15737;49.760;6.632;2022-07-03T15:36:07;29.80;42.30
28530;DHT22;15737;49.760;6.632;2022-07-03T15:38:40;29.90;42.20
28530;DHT22;15737;49.760;6.632;2022-07-03T15:41:12;29.80;42.30
28530;DHT22;15737;49.760;6.632;2022-07-03T15:47:01;30.60;41.50
28530;DHT22;15737;49.760;6.632;2022-07-03T15:49:30;30.80;41.60
28530;DHT22;15737;49.760;6.632;2022-07-03T15:54:51;30.60;41.80
28530;DHT22;15737;49.760;6.632;2022-07-03T15:57:46;30.50;41.90
28530;DHT22;15737;49.760;6.632;2022-07-03T16:00:15;30.20;42.10
28530;DHT22;15737;49.760;6.632;2022-07-03T16:03:10;30.00;42.50
28530;DHT22;15737;49.760;6.632;2022-07-03T16:05:37;30.10;42.30
28530;DHT22;15737;49.760;6.632;2022-07-03T16:08:11;30.10;42.40
28530;DHT22;15737;49.760;6.632;2022-07-03T16:10:38;30.10;42.90
28530;DHT22;15737;49.760;6.632;2022-07-03T16:13:04;29.80;43.30
28530;DHT22;15737;49.760;6.632;2022-07-03T16:15:35;29.40;43.90
28530;DHT22;15737;49.760;6.632;2022-07-03T16:18:01;29.20;44.50
28530;DHT22;15737;49.760;6.632;2022-07-03T16:20:29;29.20;44.70
28530;DHT22;15737;49.760;6.632;2022-07-03T16:22:59;29.10;44.70
28530;DHT22;15737;49.760;6.632;2022-07-03T16:25:25;28.90;45.00
28530;DHT22;15737;49.760;6.632;2022-07-03T16:27:51;28.80;45.10
28530;DHT22;15737;49.760;6.632;2022-07-03T16:30:16;28.70;45.60
28530;DHT22;15737;49.760;6.632;2022-07-03T16:32:43;28.40;46.20
28530;DHT22;15737;49.760;6.632;2022-07-03T16:37:47;28.50;46.40
28530;DHT22;15737;49.760;6.632;2022-07-03T16:40:17;28.90;46.20
28530;DHT22;15737;49.760;6.632;2022-07-03T16:42:45;28.90;45.50
28530;DHT22;15737;49.760;6.632;2022-07-03T16:45:12;28.50;46.00
28530;DHT22;15737;49.760;6.632;2022-07-03T16:47:40;28.40;46.30
28530;DHT22;15737;49.760;6.632;2022-07-03T16:50:09;28.40;46.50
28530;DHT22;15737;49.760;6.632;2022-07-03T16:52:36;28.30;46.90